createdAt,value
2019-05-19T00:00:12.639Z,3.02
2019-05-19T00:02:42.811Z,2.45
2019-05-19T00:05:14.783Z,1.25
2019-05-19T00:07:44.746Z,1.77
2019-05-19T00:10:16.917Z,1.45
2019-05-19T00:12:46.626Z,2.00
2019-05-19T00:15:16.741Z,1.25
2019-05-19T00:17:46.734Z,1.40
2019-05-19T00:20:16.693Z,1.90
2019-05-19T00:22:46.718Z,1.12
2019-05-19T00:25:16.830Z,1.02
2019-05-19T00:27:46.977Z,0.70
2019-05-19T00:30:17.254Z,0.80
2019-05-19T00:32:47.252Z,0.68
2019-05-19T00:35:17.419Z,0.60
2019-05-19T00:37:47.386Z,0.60
2019-05-19T00:40:17.499Z,0.70
2019-05-19T00:42:47.554Z,0.57
2019-05-19T00:45:18.158Z,0.68
2019-05-19T00:47:48.289Z,0.80
2019-05-19T00:50:18.843Z,0.50
2019-05-19T00:52:48.946Z,3.17
2019-05-19T00:55:19.011Z,2.05
2019-05-19T00:57:50.026Z,0.70
2019-05-19T01:00:22.683Z,1.37
2019-05-19T01:03:00.156Z,1.32
2019-05-19T01:05:30.125Z,0.50
2019-05-19T01:08:00.222Z,2.12
2019-05-19T01:10:30.316Z,0.70
2019-05-19T01:13:00.378Z,1.30
2019-05-19T01:15:30.482Z,1.30
2019-05-19T01:18:00.590Z,1.32
2019-05-19T01:20:30.890Z,0.98
2019-05-19T01:23:00.922Z,0.40
2019-05-19T01:25:30.955Z,0.30
2019-05-19T01:28:02.861Z,0.40
2019-05-19T01:30:33.529Z,1.17
2019-05-19T01:33:03.527Z,0.30
2019-05-19T01:35:33.633Z,0.50
2019-05-19T01:38:03.699Z,0.75
2019-05-19T01:40:33.728Z,1.07
2019-05-19T01:43:03.846Z,0.20
2019-05-19T01:45:33.949Z,0.57
2019-05-19T01:48:03.878Z,0.42
2019-05-19T01:50:33.978Z,0.40
2019-05-19T01:53:05.069Z,0.57
2019-05-19T01:55:35.050Z,0.35
2019-05-19T01:58:05.146Z,1.50
2019-05-19T02:00:35.146Z,0.30
2019-05-19T02:03:05.565Z,2.77
2019-05-19T02:05:35.630Z,0.30
2019-05-19T02:08:05.809Z,0.40
2019-05-19T02:10:35.841Z,0.75
2019-05-19T02:13:05.838Z,0.30
2019-05-19T02:15:35.942Z,0.30
2019-05-19T02:18:08.799Z,0.98
2019-05-19T02:20:38.766Z,0.40
2019-05-19T02:23:08.939Z,0.30
2019-05-19T02:25:40.142Z,0.28
2019-05-19T02:28:12.050Z,1.02
2019-05-19T02:30:42.129Z,0.30
2019-05-19T02:33:12.163Z,0.30
2019-05-19T02:35:42.166Z,1.50
2019-05-19T02:38:12.276Z,1.50
2019-05-19T02:40:45.310Z,2.05
2019-05-19T02:43:17.887Z,0.62
2019-05-19T02:45:52.180Z,1.02
2019-05-19T02:50:53.118Z,0.82
2019-05-19T02:53:24.814Z,0.42
2019-05-19T02:55:55.986Z,1.15
2019-05-19T02:58:26.183Z,1.35
2019-05-19T03:00:56.147Z,2.05
2019-05-19T03:03:26.215Z,1.40
2019-05-19T03:05:56.190Z,2.40
2019-05-19T03:08:26.218Z,0.37
2019-05-19T03:10:56.299Z,0.55
2019-05-19T03:13:26.425Z,0.90
2019-05-19T03:15:56.479Z,1.77
2019-05-19T03:18:26.504Z,2.08
2019-05-19T03:21:10.462Z,1.02
2019-05-19T03:23:29.054Z,3.90
2019-05-19T03:25:59.121Z,1.42
2019-05-19T03:28:29.099Z,0.47
2019-05-19T03:31:09.347Z,1.15
2019-05-19T03:33:47.979Z,2.00
2019-05-19T03:36:18.018Z,0.50
2019-05-19T03:38:47.972Z,0.60
2019-05-19T03:41:17.995Z,1.67
2019-05-19T03:43:47.991Z,0.40
2019-05-19T03:46:19.699Z,0.78
2019-05-19T03:48:51.359Z,0.50
2019-05-19T03:51:30.928Z,0.72
2019-05-19T03:53:53.006Z,0.88
2019-05-19T03:56:23.030Z,1.47
2019-05-19T03:58:52.961Z,2.55
2019-05-19T04:01:24.159Z,1.67
2019-05-19T04:03:54.117Z,2.12
2019-05-19T04:06:24.036Z,5.10
2019-05-19T04:08:53.996Z,3.50
2019-05-19T04:11:25.016Z,2.67
2019-05-19T04:13:54.972Z,2.15
2019-05-19T04:16:25.027Z,1.32
2019-05-19T04:18:55.063Z,1.95
2019-05-19T04:21:25.061Z,2.22
2019-05-19T04:23:55.074Z,5.45
2019-05-19T04:26:25.160Z,2.85
2019-05-19T04:28:55.255Z,1.65
2019-05-19T04:31:25.277Z,1.67
2019-05-19T04:33:55.199Z,1.57
2019-05-19T04:36:25.234Z,1.90
2019-05-19T04:38:55.189Z,1.47
2019-05-19T04:41:25.271Z,1.60
2019-05-19T04:43:55.293Z,1.10
2019-05-19T04:46:25.227Z,2.60
2019-05-19T04:48:55.222Z,0.80
2019-05-19T04:51:25.141Z,0.80
2019-05-19T04:53:55.093Z,2.52
2019-05-19T04:56:25.017Z,2.72
2019-05-19T04:58:55.042Z,2.27
2019-05-19T05:01:25.151Z,0.85
2019-05-19T05:03:55.132Z,1.07
2019-05-19T05:06:29.887Z,1.15
2019-05-19T05:08:59.902Z,1.37
2019-05-19T05:11:29.895Z,1.60
2019-05-19T05:13:59.926Z,0.90
2019-05-19T05:16:30.017Z,0.82
2019-05-19T05:19:00.119Z,1.00
2019-05-19T05:21:30.122Z,2.58
2019-05-19T05:24:01.052Z,1.85
2019-05-19T05:26:31.120Z,2.30
2019-05-19T05:29:01.221Z,0.65
2019-05-19T05:31:32.190Z,0.82
2019-05-19T05:34:02.229Z,1.15
2019-05-19T05:36:32.250Z,2.17
2019-05-19T05:39:02.413Z,0.75
2019-05-19T05:41:37.166Z,0.75
2019-05-19T05:44:07.258Z,2.70
2019-05-19T05:46:37.177Z,1.05
2019-05-19T05:49:07.206Z,0.23
2019-05-19T05:51:38.658Z,0.75
2019-05-19T05:54:08.654Z,0.37
2019-05-19T05:56:38.665Z,0.25
2019-05-19T05:59:08.662Z,0.85
2019-05-19T06:01:38.628Z,0.28
2019-05-19T06:04:08.603Z,0.30
2019-05-19T06:06:38.569Z,0.33
2019-05-19T06:09:08.588Z,0.50
2019-05-19T06:11:38.510Z,0.45
2019-05-19T06:14:08.562Z,1.55
2019-05-19T06:16:38.490Z,0.50
2019-05-19T06:19:08.522Z,1.45
2019-05-19T06:21:38.454Z,0.45
2019-05-19T06:24:08.486Z,0.50
2019-05-19T06:26:38.558Z,0.30
2019-05-19T06:29:08.587Z,0.20
2019-05-19T06:31:38.599Z,0.30
2019-05-19T06:34:10.738Z,0.20
2019-05-19T06:36:40.790Z,0.20
2019-05-19T06:39:10.765Z,0.65
2019-05-19T06:41:40.818Z,0.17
2019-05-19T06:44:12.679Z,2.30
2019-05-19T06:46:44.330Z,0.95
2019-05-19T06:49:16.804Z,0.70
2019-05-19T06:51:47.746Z,0.20
2019-05-19T06:54:18.684Z,0.20
2019-05-19T06:56:48.730Z,0.30
2019-05-19T06:59:21.324Z,1.10
2019-05-19T07:01:51.485Z,0.65
2019-05-19T07:04:21.514Z,1.00
2019-05-19T07:06:51.761Z,1.45
2019-05-19T07:09:21.940Z,0.90
2019-05-19T07:11:52.015Z,1.80
2019-05-19T07:14:22.120Z,0.53
2019-05-19T07:16:52.188Z,2.15
2019-05-19T07:19:22.183Z,0.68
2019-05-19T07:21:52.221Z,0.47
2019-05-19T07:24:23.899Z,0.95
2019-05-19T07:26:55.196Z,0.75
2019-05-19T07:29:25.266Z,2.50
2019-05-19T07:31:55.206Z,0.80
2019-05-19T07:34:25.235Z,1.85
2019-05-19T07:36:55.342Z,1.62
2019-05-19T07:39:25.190Z,0.57
2019-05-19T07:41:55.147Z,1.55
2019-05-19T07:44:25.205Z,1.35
2019-05-19T07:47:02.051Z,0.68
2019-05-19T07:49:37.678Z,1.62
2019-05-19T07:52:07.725Z,1.37
2019-05-19T07:54:41.143Z,0.30
2019-05-19T07:57:11.183Z,2.05
2019-05-19T07:59:42.746Z,0.50
2019-05-19T08:02:12.826Z,1.17
2019-05-19T08:04:42.880Z,0.72
2019-05-19T08:07:26.089Z,2.20
2019-05-19T08:10:07.800Z,1.02
2019-05-19T08:12:52.854Z,2.42
2019-05-19T08:15:25.176Z,1.02
2019-05-19T08:17:54.978Z,1.35
2019-05-19T08:20:25.012Z,2.33
2019-05-19T08:22:57.357Z,0.62
2019-05-19T08:25:34.255Z,1.35
2019-05-19T08:28:08.638Z,2.10
2019-05-19T08:30:36.070Z,1.22
2019-05-19T08:33:06.219Z,0.95
2019-05-19T08:35:36.788Z,2.87
2019-05-19T08:38:07.936Z,3.47
2019-05-19T08:40:38.032Z,2.15
2019-05-19T08:43:08.132Z,2.85
2019-05-19T08:45:38.129Z,3.30
2019-05-19T08:48:08.228Z,4.50
2019-05-19T08:50:40.643Z,2.98
2019-05-19T08:53:17.686Z,1.75
2019-05-19T08:55:47.688Z,1.52
2019-05-19T08:58:19.137Z,0.75
2019-05-19T09:00:49.192Z,1.55
2019-05-19T09:03:40.622Z,0.67
2019-05-19T09:06:10.632Z,0.60
2019-05-19T09:08:40.798Z,1.10
2019-05-19T09:11:10.654Z,1.27
2019-05-19T09:13:40.673Z,1.17
2019-05-19T09:16:10.718Z,3.58
2019-05-19T09:18:40.865Z,0.98
2019-05-19T09:21:11.467Z,1.37
2019-05-19T09:23:41.485Z,1.45
2019-05-19T09:26:11.579Z,1.35
2019-05-19T09:28:41.648Z,2.45
2019-05-19T09:31:11.673Z,0.88
2019-05-19T09:33:41.698Z,0.60
2019-05-19T09:36:11.702Z,1.70
2019-05-19T09:38:41.743Z,1.55
2019-05-19T09:41:11.733Z,0.72
2019-05-19T09:43:52.807Z,0.85
2019-05-19T09:46:22.823Z,1.10
2019-05-19T09:49:11.117Z,1.15
2019-05-19T09:51:41.039Z,2.58
2019-05-19T09:54:11.151Z,0.90
2019-05-19T09:56:41.566Z,3.55
2019-05-19T09:59:11.586Z,1.70
2019-05-19T10:01:41.765Z,0.68
2019-05-19T10:04:11.778Z,1.70
2019-05-19T10:06:43.891Z,1.17
2019-05-19T10:09:16.890Z,2.55
2019-05-19T10:14:28.273Z,3.65
2019-05-19T10:16:58.334Z,1.85
2019-05-19T10:19:28.438Z,2.02
2019-05-19T10:21:58.438Z,4.92
2019-05-19T10:24:28.546Z,1.40
2019-05-19T10:26:58.541Z,1.05
2019-05-19T10:29:28.635Z,2.12
2019-05-19T10:31:58.624Z,0.45
2019-05-19T10:34:28.554Z,2.75
2019-05-19T10:36:58.536Z,0.62
2019-05-19T10:39:28.531Z,0.40
2019-05-19T10:41:58.702Z,3.90
2019-05-19T10:44:28.834Z,1.62
2019-05-19T10:46:58.874Z,0.45
2019-05-19T10:49:28.958Z,2.08
2019-05-19T10:51:59.054Z,1.15
2019-05-19T10:54:29.106Z,0.93
2019-05-19T10:56:59.113Z,1.70
2019-05-19T10:59:29.214Z,1.82
2019-05-19T11:01:59.285Z,1.85
2019-05-19T11:04:29.463Z,1.60
2019-05-19T11:06:59.604Z,1.87
2019-05-19T11:09:29.770Z,1.30
2019-05-19T11:11:59.856Z,0.90
2019-05-19T11:14:29.901Z,0.80
2019-05-19T11:16:59.902Z,1.47
2019-05-19T11:19:29.910Z,1.22
2019-05-19T11:21:59.911Z,1.15
2019-05-19T11:24:30.010Z,2.75
2019-05-19T11:27:00.078Z,2.70
2019-05-19T11:29:30.046Z,1.27
2019-05-19T11:32:00.007Z,2.47
2019-05-19T11:34:30.007Z,1.82
2019-05-19T11:37:00.031Z,1.55
2019-05-19T11:39:30.130Z,1.17
2019-05-19T11:42:00.057Z,1.40
2019-05-19T11:44:30.022Z,1.62
2019-05-19T11:46:59.994Z,1.50
2019-05-19T11:49:30.035Z,1.92
2019-05-19T11:52:00.034Z,3.15
2019-05-19T11:54:30.006Z,2.37
2019-05-19T11:57:00.084Z,2.50
2019-05-19T11:59:30.016Z,9.48
2019-05-19T12:02:00.042Z,3.47
2019-05-19T12:04:30.111Z,3.75
2019-05-19T12:07:00.075Z,1.87
2019-05-19T12:09:30.079Z,2.77
2019-05-19T12:12:00.049Z,1.55
2019-05-19T12:14:31.211Z,2.52
2019-05-19T12:17:01.219Z,1.25
2019-05-19T12:19:32.329Z,1.72
2019-05-19T12:22:02.296Z,3.58
2019-05-19T12:24:33.305Z,2.08
2019-05-19T12:27:03.473Z,2.55
2019-05-19T12:29:33.435Z,5.45
2019-05-19T12:32:03.375Z,2.27
2019-05-19T12:34:33.385Z,1.35
2019-05-19T12:37:03.573Z,1.37
2019-05-19T12:39:33.487Z,1.40
2019-05-19T12:42:03.598Z,1.87
2019-05-19T12:44:33.705Z,1.40
2019-05-19T12:47:03.880Z,0.90
2019-05-19T12:49:33.962Z,0.80
2019-05-19T12:52:04.134Z,0.90
2019-05-19T12:54:34.099Z,1.37
2019-05-19T12:57:04.286Z,0.88
2019-05-19T12:59:34.286Z,1.02
2019-05-19T13:02:04.387Z,1.52
2019-05-19T13:04:34.482Z,2.50
2019-05-19T13:07:04.574Z,4.72
2019-05-19T13:09:34.499Z,1.70
2019-05-19T13:12:04.610Z,2.15
2019-05-19T13:14:34.670Z,1.42
2019-05-19T13:17:04.875Z,1.87
2019-05-19T13:19:34.907Z,2.00
2019-05-19T13:22:05.075Z,2.15
2019-05-19T13:24:35.174Z,2.77
2019-05-19T13:27:05.167Z,1.15
2019-05-19T13:29:35.197Z,2.35
2019-05-19T13:32:05.305Z,1.92
2019-05-19T13:34:35.305Z,2.85
2019-05-19T13:37:05.413Z,0.85
2019-05-19T13:39:36.497Z,1.12
2019-05-19T13:42:06.602Z,2.77
2019-05-19T13:44:36.570Z,1.55
2019-05-19T13:47:06.504Z,0.95
2019-05-19T13:49:36.629Z,1.07
2019-05-19T13:52:06.624Z,2.02
2019-05-19T13:54:37.932Z,5.08
2019-05-19T13:57:12.106Z,1.20
2019-05-19T13:59:39.858Z,2.37
2019-05-19T14:02:09.959Z,1.35
2019-05-19T14:04:40.897Z,1.00
2019-05-19T14:07:10.984Z,1.12
2019-05-19T14:09:41.031Z,0.93
2019-05-19T14:12:12.035Z,0.90
2019-05-19T14:14:42.070Z,2.12
2019-05-19T14:17:12.156Z,1.90
2019-05-19T14:19:42.274Z,1.32
2019-05-19T14:22:12.350Z,2.12
2019-05-19T14:24:42.319Z,2.55
2019-05-19T14:27:28.453Z,1.75
2019-05-19T14:29:44.807Z,2.22
2019-05-19T14:32:14.847Z,1.15
2019-05-19T14:34:44.812Z,3.37
2019-05-19T14:37:14.811Z,1.35
2019-05-19T14:39:44.913Z,0.90
2019-05-19T14:42:16.552Z,1.32
2019-05-19T14:44:46.666Z,1.45
2019-05-19T14:47:16.649Z,2.15
2019-05-19T14:49:46.614Z,2.33
2019-05-19T14:52:16.570Z,1.70
2019-05-19T14:54:46.570Z,4.03
2019-05-19T14:57:16.475Z,1.40
2019-05-19T14:59:46.597Z,3.22
2019-05-19T15:02:19.934Z,1.72
2019-05-19T15:04:49.366Z,1.35
2019-05-19T15:07:20.526Z,2.60
2019-05-19T15:09:50.614Z,1.20
2019-05-19T15:12:20.705Z,1.77
2019-05-19T15:14:50.667Z,1.55
2019-05-19T15:17:20.744Z,1.40
2019-05-19T15:19:50.783Z,1.30
2019-05-19T15:22:22.443Z,3.77
2019-05-19T15:24:52.486Z,1.02
2019-05-19T15:27:22.415Z,1.90
2019-05-19T15:29:53.597Z,3.20
2019-05-19T15:32:23.617Z,1.00
2019-05-19T15:34:53.694Z,0.90
2019-05-19T15:37:23.595Z,1.10
2019-05-19T15:39:53.624Z,1.40
2019-05-19T15:42:23.734Z,2.08
2019-05-19T15:44:53.672Z,3.65
2019-05-19T15:47:23.817Z,1.60
2019-05-19T15:49:53.742Z,1.82
2019-05-19T15:52:23.872Z,1.87
2019-05-19T15:54:53.950Z,1.57
2019-05-19T15:57:23.947Z,1.20
2019-05-19T15:59:53.942Z,1.47
2019-05-19T16:02:24.012Z,2.10
2019-05-19T16:04:54.098Z,6.25
2019-05-19T16:07:24.142Z,1.85
2019-05-19T16:09:54.259Z,2.33
2019-05-19T16:12:24.358Z,1.30
2019-05-19T16:14:54.390Z,4.62
2019-05-19T16:17:24.250Z,3.27
2019-05-19T16:19:54.210Z,3.80
2019-05-19T16:22:24.264Z,2.70
2019-05-19T16:24:54.191Z,1.82
2019-05-19T16:27:25.347Z,1.82
2019-05-19T16:29:56.542Z,4.30
2019-05-19T16:32:26.726Z,3.20
2019-05-19T16:34:57.683Z,3.27
2019-05-19T16:37:27.757Z,2.27
2019-05-19T16:39:57.819Z,4.50
2019-05-19T16:42:29.334Z,2.85
2019-05-19T16:44:59.517Z,2.98
2019-05-19T16:47:29.620Z,3.85
2019-05-19T16:49:59.622Z,3.75
2019-05-19T16:52:30.549Z,5.22
2019-05-19T16:55:19.467Z,3.62
2019-05-19T16:57:49.738Z,4.15
2019-05-19T17:00:20.498Z,5.35
2019-05-19T17:02:50.641Z,5.22
2019-05-19T17:05:21.919Z,3.40
2019-05-19T17:07:52.003Z,3.87
2019-05-19T17:10:22.199Z,3.45
2019-05-19T17:12:52.219Z,4.53
2019-05-19T17:15:22.538Z,9.45
2019-05-19T17:17:52.538Z,24.07
2019-05-19T17:20:22.670Z,45.67
2019-05-19T17:22:52.750Z,35.13
2019-05-19T17:25:23.390Z,14.38
2019-05-19T17:27:53.506Z,20.80
2019-05-19T17:30:23.874Z,11.18
2019-05-19T17:32:53.854Z,4.20
2019-05-19T17:35:23.926Z,4.80
2019-05-19T17:37:54.038Z,3.95
2019-05-19T17:40:24.248Z,4.35
2019-05-19T17:42:54.355Z,4.55
2019-05-19T17:45:24.431Z,3.90
2019-05-19T17:48:08.200Z,4.42
2019-05-19T17:50:33.762Z,4.65
2019-05-19T17:53:03.963Z,4.20
2019-05-19T17:55:35.523Z,5.17
2019-05-19T17:58:05.730Z,4.47
2019-05-19T18:00:40.766Z,4.55
2019-05-19T18:03:11.164Z,5.70
2019-05-19T18:05:41.255Z,4.90
2019-05-19T18:08:11.346Z,7.55
2019-05-19T18:10:41.386Z,5.83
2019-05-19T18:13:11.525Z,7.75
2019-05-19T18:15:41.626Z,8.18
2019-05-19T18:18:11.722Z,8.25
2019-05-19T18:20:41.753Z,7.37
2019-05-19T18:23:11.831Z,7.62
2019-05-19T18:25:41.864Z,8.60
2019-05-19T18:28:11.938Z,7.40
2019-05-19T18:30:42.034Z,6.78
2019-05-19T18:33:12.186Z,7.42
2019-05-19T18:35:42.294Z,8.48
2019-05-19T18:38:13.582Z,8.33
2019-05-19T18:40:43.658Z,11.20
2019-05-19T18:43:14.410Z,8.80
2019-05-19T18:45:44.421Z,9.23
2019-05-19T18:48:14.382Z,8.75
2019-05-19T18:50:44.561Z,10.35
2019-05-19T18:53:14.644Z,11.45
2019-05-19T18:55:44.587Z,9.18
2019-05-19T18:58:14.561Z,11.53
2019-05-19T19:00:44.759Z,9.93
2019-05-19T19:03:14.841Z,9.38
2019-05-19T19:05:44.974Z,9.80
2019-05-19T19:08:15.122Z,11.18
2019-05-19T19:10:47.267Z,9.00
2019-05-19T19:13:18.921Z,10.90
2019-05-19T19:15:50.012Z,12.15
2019-05-19T19:18:20.128Z,10.43
2019-05-19T19:20:50.251Z,10.18
2019-05-19T19:23:20.450Z,12.73
2019-05-19T19:25:50.548Z,15.15
2019-05-19T19:28:20.646Z,12.47
2019-05-19T19:30:50.714Z,14.13
2019-05-19T19:33:20.851Z,13.68
2019-05-19T19:35:50.979Z,13.98
2019-05-19T19:38:21.166Z,12.60
2019-05-19T19:40:54.097Z,12.07
2019-05-19T19:43:24.094Z,14.58
2019-05-19T19:45:55.252Z,12.33
2019-05-19T19:48:25.371Z,14.18
2019-05-19T19:50:55.512Z,12.93
2019-05-19T19:53:25.705Z,13.25
2019-05-19T19:55:55.655Z,14.43
2019-05-19T19:58:25.770Z,10.30
2019-05-19T20:00:55.766Z,13.22
2019-05-19T20:03:25.815Z,15.63
2019-05-19T20:05:55.947Z,11.50
2019-05-19T20:08:26.086Z,9.95
2019-05-19T20:10:56.127Z,10.25
2019-05-19T20:13:26.262Z,10.03
2019-05-19T20:15:56.234Z,6.70
2019-05-19T20:18:26.233Z,7.17
2019-05-19T20:20:56.338Z,5.28
2019-05-19T20:23:26.287Z,4.95
2019-05-19T20:25:56.319Z,5.25
2019-05-19T20:28:26.419Z,5.22
2019-05-19T20:30:56.417Z,5.83
2019-05-19T20:33:26.546Z,4.90
2019-05-19T20:35:56.458Z,5.35
2019-05-19T20:38:26.563Z,4.67
2019-05-19T20:40:56.603Z,5.78
2019-05-19T20:43:26.666Z,4.65
2019-05-19T20:45:56.697Z,5.58
2019-05-19T20:48:26.794Z,5.47
2019-05-19T20:50:56.759Z,4.60
2019-05-19T20:53:26.690Z,4.78
2019-05-19T20:55:56.653Z,5.85
2019-05-19T20:58:26.685Z,3.80
2019-05-19T21:00:56.722Z,5.97
2019-05-19T21:03:26.718Z,5.30
2019-05-19T21:05:56.682Z,4.25
2019-05-19T21:08:26.752Z,4.17
2019-05-19T21:10:56.722Z,5.47
2019-05-19T21:13:26.718Z,4.78
2019-05-19T21:15:56.694Z,4.67
2019-05-19T21:18:26.622Z,3.65
2019-05-19T21:20:56.748Z,4.25
2019-05-19T21:23:26.735Z,4.28
2019-05-19T21:25:56.697Z,4.28
2019-05-19T21:28:26.724Z,3.80
2019-05-19T21:31:05.254Z,3.75
2019-05-19T21:33:28.378Z,4.87
2019-05-19T21:35:58.382Z,4.65
2019-05-19T21:38:28.355Z,4.78
2019-05-19T21:40:58.479Z,4.40
2019-05-19T21:43:28.481Z,4.70
2019-05-19T21:45:58.518Z,7.45
2019-05-19T21:48:32.705Z,5.47
2019-05-19T21:51:03.113Z,5.00
2019-05-19T21:53:33.094Z,9.55
2019-05-19T21:56:03.697Z,4.03
2019-05-19T21:58:33.690Z,4.53
2019-05-19T22:01:03.862Z,4.12
2019-05-19T22:03:34.033Z,4.50
2019-05-19T22:06:04.370Z,5.28
2019-05-19T22:08:34.394Z,6.50
2019-05-19T22:11:04.750Z,5.20
2019-05-19T22:13:34.870Z,4.30
2019-05-19T22:16:12.709Z,3.12
2019-05-19T22:18:36.526Z,4.60
2019-05-19T22:21:06.624Z,2.90
2019-05-19T22:23:36.562Z,3.45
2019-05-19T22:26:06.593Z,3.72
2019-05-19T22:28:36.659Z,4.30
2019-05-19T22:31:06.699Z,4.80
2019-05-19T22:33:36.697Z,3.20
2019-05-19T22:36:06.718Z,3.52
2019-05-19T22:38:36.782Z,2.98
2019-05-19T22:41:06.750Z,4.10
2019-05-19T22:43:36.750Z,5.33
2019-05-19T22:46:06.834Z,3.40
2019-05-19T22:48:36.841Z,3.62
2019-05-19T22:51:06.866Z,3.15
2019-05-19T22:53:36.782Z,3.72
2019-05-19T22:56:06.819Z,3.70
2019-05-19T22:58:36.914Z,5.00
2019-05-19T23:01:06.990Z,3.65
2019-05-19T23:03:37.023Z,3.57
2019-05-19T23:06:07.086Z,3.37
2019-05-19T23:08:37.229Z,4.17
2019-05-19T23:11:07.222Z,3.95
2019-05-19T23:13:37.186Z,6.00
2019-05-19T23:16:07.286Z,4.00
2019-05-19T23:18:37.294Z,3.77
2019-05-19T23:21:07.323Z,5.72
2019-05-19T23:23:37.422Z,5.83
2019-05-19T23:26:07.490Z,5.30
2019-05-19T23:28:37.451Z,6.28
2019-05-19T23:31:07.402Z,5.05
2019-05-19T23:33:37.409Z,5.60
2019-05-19T23:36:07.443Z,7.17
2019-05-19T23:38:37.453Z,6.12
2019-05-19T23:41:07.522Z,5.40
2019-05-19T23:43:37.497Z,5.58
2019-05-19T23:46:07.483Z,5.70
2019-05-19T23:48:37.514Z,5.70
2019-05-19T23:51:07.554Z,6.12
2019-05-19T23:53:37.489Z,5.90
2019-05-19T23:56:07.571Z,6.42
2019-05-19T23:58:37.593Z,5.45
